Camden, AL

9:16 PM CDT on August 21, 2014 (GMT -0500)
Montgomery | Change Station
CLOSE
Current Station
Airport
Location: Montgomery,
Elevation: 203 ft
Nearby Weather Stations
Active Advisory: Special Statement

Elev 203 ft 32.30 °N, 86.41 °W | Updated 23 minutes ago

Partly Cloudy
Partly Cloudy
84 °F
Feels Like 94 °F
N
4
Wind Variable Wind from NW

Today
High -- | Low -- °F
--% Chance of Precip.
Yesterday
High -- | Low -- °F
Precip. -- in
6:17 AM 7:26 PM
Waning Crescent, 11% visible
Pressure 30.09 in
Visibility 10.0 miles
Clouds Few 7000 ft
Heat Index 94 °F
Dew Point 77 °F
Humidity 79%
Rainfall 0.00 in
Snow Depth Not available.
UV 0 out of 12
Pollen 8.60 out of 12
Air Quality Not available.
Flu Activity Not available.
METAR KMGM 220153Z 32003KT 10SM FEW070 29/25 A3009 RMK AO2 SLP188 T02890250

More Conditions Fewer Conditions

Pressure 30.09 in
Visibility 10.0 miles
Clouds Few 7000 ft
Heat Index 94 °F
Dew Point 77 °F
Humidity 79%
Rainfall 0.00 in
Snow Depth Not available.
UV 0 out of 12
Pollen 8.60 out of 12
Air Quality Not available.
Flu Activity Not available.
METAR KMGM 220153Z 32003KT 10SM FEW070 29/25 A3009 RMK AO2 SLP188 T02890250

More Conditions Fewer Conditions

10-Day Weather Forecast

Almanac

Astronomy

Aug. 21, 2014 Rise Set
Actual Time 6:17 AM CDT 7:26 PM CDT
Civil Twilight 5:52 AM CDT 7:51 PM CDT
Nautical Twilight 5:21 AM CDT 8:21 PM CDT
Astronomical Twilight 4:50 AM CDT 8:53 PM CDT
Moon 2:53 AM CDT (8/21) 4:50 PM CDT (8/21)
Length of Visible Light 13h 59m
Length of Day
13h 08m
Tomorrow will be 1m 47s shorter.
Waning Crescent, 11% of the Moon is Illuminated
Today
Waning Crescent
Aug 25
New
Sep 2
First Quarter
Sep 8
Full
Sep 15
Last Quarter

Today's Extremes

State Highs State Lows

Community

WunderPhotos

Upload Photos

1,746,106 photos uploaded!

WunderBlogs® & News

Nearby

Snow Depth

Station Depth Elevation
No new snow has been reported.

Earthquake Activity

City Distance Mag. Time & Date
No recent earthquake activity has been reported nearby.
Minimum magnitude displayed is 2.5.

Coastal Water Temperatures

Place Temperature
No Stations Reporting

Nearby Weather Stations